Time;durP1;ratioP1;P1;durP2;ratioP2;P2;SDS_P1;SDS_P2;PMS_P1;PMS_P2;Temp;Humidity;BMP_temperature;BMP_pressure;BME280_temperature;BME280_humidity;BME280_pressure;Samples;Min_cycle;Max_cycle;Signal;HPM_P1;HPM_P2
2022/01/06 00:01:11;;;;;;;23.92;5.97;;;6.10;99.90;;;;;;5012832;28;20486;-62
2022/01/06 00:03:37;;;;;;;22.85;5.15;;;6.10;99.90;;;;;;5020714;28;20203;-63
2022/01/06 00:06:07;;;;;;;26.10;6.25;;;6.10;99.90;;;;;;5018287;28;20650;-62
2022/01/06 00:08:34;;;;;;;40.13;6.90;;;6.00;99.90;;;;;;5024003;28;20056;-62
2022/01/06 00:11:00;;;;;;;31.08;5.75;;;6.00;99.90;;;;;;5021584;28;20064;-62
2022/01/06 00:13:35;;;;;;;21.65;5.97;;;6.00;99.90;;;;;;5023313;28;20037;-62
2022/01/06 00:16:12;;;;;;;16.98;4.10;;;5.90;99.90;;;;;;5026964;28;20041;-62
2022/01/06 00:23:06;;;;;;;21.83;4.03;;;5.90;99.90;;;;;;5021911;28;20120;-62
2022/01/06 00:24:07;;;;;;;21.85;4.45;;;6.00;99.90;;;;;;5015266;28;20437;-62
2022/01/06 00:26:33;;;;;;;18.02;4.38;;;6.00;99.90;;;;;;5028402;28;20132;-62
2022/01/06 00:28:58;;;;;;;15.38;3.40;;;6.00;99.90;;;;;;5024747;28;20081;-62
2022/01/06 00:31:24;;;;;;;16.48;3.20;;;6.00;99.90;;;;;;5017378;28;20469;-62
2022/01/06 00:33:49;;;;;;;16.90;4.20;;;5.90;99.90;;;;;;5015477;28;20061;-62
2022/01/06 00:36:15;;;;;;;19.17;3.80;;;5.90;99.90;;;;;;5010643;28;20072;-62
2022/01/06 00:38:40;;;;;;;30.48;4.50;;;6.00;99.90;;;;;;5013952;28;20048;-62
2022/01/06 00:41:06;;;;;;;25.02;4.45;;;6.00;99.90;;;;;;5015068;28;20046;-62
2022/01/06 00:43:31;;;;;;;16.52;3.65;;;6.00;99.90;;;;;;5024926;28;20048;-62
2022/01/06 00:45:57;;;;;;;23.05;3.53;;;6.00;99.90;;;;;;5017031;28;20425;-62
2022/01/06 00:48:22;;;;;;;19.13;3.53;;;6.00;99.90;;;;;;5013472;28;20536;-62
2022/01/06 00:50:48;;;;;;;28.08;5.25;;;6.00;99.90;;;;;;5011432;28;20038;-62
2022/01/06 00:53:14;;;;;;;21.83;5.07;;;6.00;99.90;;;;;;5016998;28;20053;-62
2022/01/06 00:55:40;;;;;;;15.38;3.63;;;5.90;99.90;;;;;;5016464;28;20404;-62
2022/01/06 00:58:06;;;;;;;19.05;3.72;;;5.90;99.90;;;;;;5015456;28;20643;-62
2022/01/06 01:00:40;;;;;;;17.42;4.43;;;6.00;99.90;;;;;;5017419;28;20037;-62
2022/01/06 01:03:12;;;;;;;25.77;4.13;;;5.90;99.90;;;;;;5020230;28;20490;-62
2022/01/06 01:05:42;;;;;;;20.40;5.18;;;5.90;99.90;;;;;;5013018;28;20042;-62
2022/01/06 01:08:08;;;;;;;22.48;4.47;;;5.90;99.90;;;;;;5018891;28;20548;-62
2022/01/06 01:10:34;;;;;;;14.48;2.80;;;5.80;99.90;;;;;;5023138;28;20042;-62
2022/01/06 01:13:00;;;;;;;22.65;3.50;;;5.80;99.90;;;;;;5016093;28;20184;-62
2022/01/06 01:15:27;;;;;;;21.30;4.18;;;5.90;99.90;;;;;;5016598;28;20549;-62
2022/01/06 01:17:54;;;;;;;25.25;4.28;;;5.90;99.90;;;;;;5016058;28;20117;-62
2022/01/06 01:20:21;;;;;;;21.38;4.03;;;5.90;99.90;;;;;;5024006;28;20073;-62
2022/01/06 01:22:47;;;;;;;23.13;3.17;;;5.80;99.90;;;;;;5025709;28;20046;-62
2022/01/06 01:25:13;;;;;;;20.25;3.65;;;5.80;99.90;;;;;;5025356;28;20041;-62
2022/01/06 01:27:42;;;;;;;16.33;3.28;;;5.80;99.90;;;;;;5023662;28;20609;-62
2022/01/06 01:30:14;;;;;;;20.17;2.90;;;5.80;99.90;;;;;;5024376;28;20053;-62
2022/01/06 01:32:45;;;;;;;24.33;4.55;;;5.90;99.90;;;;;;5023130;28;20041;-62
2022/01/06 01:35:11;;;;;;;29.52;4.03;;;5.90;99.90;;;;;;5011202;28;20046;-62
2022/01/06 01:37:37;;;;;;;22.25;5.22;;;5.80;99.90;;;;;;5017536;28;20041;-62
2022/01/06 01:40:06;;;;;;;27.63;3.90;;;5.90;99.90;;;;;;5018650;28;20548;-62
2022/01/06 01:42:31;;;;;;;34.70;5.03;;;5.80;99.90;;;;;;5024502;28;20033;-62
2022/01/06 01:44:57;;;;;;;23.52;3.67;;;5.80;99.90;;;;;;5026903;28;20104;-62
2022/01/06 01:47:32;;;;;;;17.08;4.53;;;5.70;99.90;;;;;;5023193;28;20493;-62
2022/01/06 01:50:12;;;;;;;20.67;3.65;;;5.80;99.90;;;;;;5020323;28;20119;-62
2022/01/06 01:52:40;;;;;;;23.60;3.67;;;5.70;99.90;;;;;;5023618;28;20528;-62
2022/01/06 01:55:06;;;;;;;16.67;3.20;;;5.70;99.90;;;;;;5020888;28;20596;-62
2022/01/06 01:57:32;;;;;;;19.52;3.50;;;5.70;99.90;;;;;;5019012;28;20041;-62
2022/01/06 01:59:58;;;;;;;25.33;4.05;;;5.70;99.90;;;;;;5016082;28;20087;-62
2022/01/06 02:02:24;;;;;;;18.27;3.60;;;5.60;99.90;;;;;;5017032;28;20473;-62
2022/01/06 02:04:52;;;;;;;15.00;3.35;;;5.70;99.90;;;;;;5000404;28;20446;-62
2022/01/06 02:07:18;;;;;;;27.73;4.18;;;5.60;99.90;;;;;;5015896;28;20049;-62
2022/01/06 02:09:43;;;;;;;20.77;4.82;;;5.70;99.90;;;;;;5023226;28;22200;-61
2022/01/06 02:12:10;;;;;;;28.60;4.18;;;5.60;99.90;;;;;;5013228;28;20117;-62
2022/01/06 02:14:38;;;;;;;19.25;4.60;;;5.60;99.90;;;;;;5022139;28;20068;-62
2022/01/06 02:17:03;;;;;;;9.95;2.65;;;5.60;99.90;;;;;;5016790;28;20045;-62
2022/01/06 02:19:29;;;;;;;13.35;3.17;;;5.60;99.90;;;;;;5024127;28;20040;-62
2022/01/06 02:21:54;;;;;;;22.00;3.42;;;5.60;99.90;;;;;;5017268;28;20033;-62
2022/01/06 02:24:20;;;;;;;17.48;3.40;;;5.60;99.90;;;;;;5021604;28;20103;-62
2022/01/06 02:26:45;;;;;;;27.35;5.85;;;5.60;99.90;;;;;;5014003;28;20112;-62
2022/01/06 02:29:11;;;;;;;26.25;5.07;;;5.60;99.90;;;;;;5016945;28;20136;-62
2022/01/06 02:31:43;;;;;;;15.68;3.25;;;5.60;99.90;;;;;;5019417;28;20129;-62
2022/01/06 02:34:09;;;;;;;17.05;3.75;;;5.50;99.90;;;;;;5011502;28;20170;-62
2022/01/06 02:36:34;;;;;;;25.70;3.90;;;5.40;99.90;;;;;;5003483;28;20037;-62
2022/01/06 02:39:00;;;;;;;21.83;3.97;;;5.50;99.90;;;;;;5018823;28;20550;-62
2022/01/06 02:41:26;;;;;;;21.67;4.95;;;5.50;99.90;;;;;;5011856;28;20096;-62
2022/01/06 02:43:51;;;;;;;13.27;3.10;;;5.40;99.90;;;;;;5000377;28;20053;-62
2022/01/06 02:46:17;;;;;;;26.17;3.83;;;5.40;99.90;;;;;;5012694;28;20046;-62
2022/01/06 02:48:42;;;;;;;23.23;4.40;;;5.40;99.90;;;;;;5017323;28;20053;-62
2022/01/06 02:51:08;;;;;;;25.38;4.80;;;5.40;99.90;;;;;;5016914;28;20531;-62
2022/01/06 02:53:33;;;;;;;15.05;3.70;;;5.40;99.90;;;;;;5020783;28;20507;-61
2022/01/06 02:56:00;;;;;;;23.65;4.97;;;5.30;99.90;;;;;;5018029;28;20048;-61
2022/01/06 02:58:26;;;;;;;27.70;4.05;;;5.30;99.90;;;;;;5013133;28;20523;-62
2022/01/06 03:00:51;;;;;;;22.40;4.53;;;5.30;99.90;;;;;;5023777;28;20050;-61
2022/01/06 03:03:17;;;;;;;16.88;3.92;;;5.30;99.90;;;;;;5014162;28;20053;-62
2022/01/06 03:05:43;;;;;;;23.95;4.53;;;5.20;99.90;;;;;;5023679;28;20037;-62
2022/01/06 03:08:09;;;;;;;16.73;3.65;;;5.20;99.90;;;;;;5018643;28;20053;-61
2022/01/06 03:10:38;;;;;;;15.48;3.70;;;5.20;99.90;;;;;;5018250;28;20045;-62
2022/01/06 03:13:04;;;;;;;24.33;4.93;;;5.20;99.90;;;;;;5013936;28;20603;-61
2022/01/06 03:15:29;;;;;;;23.63;3.55;;;5.20;99.90;;;;;;5014772;28;20510;-62
2022/01/06 03:17:56;;;;;;;21.00;4.22;;;5.20;99.90;;;;;;5010012;28;20044;-62
2022/01/06 03:20:23;;;;;;;16.27;3.53;;;5.20;99.90;;;;;;5024493;28;20060;-61
2022/01/06 03:22:50;;;;;;;21.20;4.47;;;5.20;99.90;;;;;;5021764;28;20042;-61
2022/01/06 03:25:15;;;;;;;18.75;4.00;;;5.20;99.90;;;;;;5014414;28;20460;-62
2022/01/06 03:27:42;;;;;;;25.23;4.60;;;5.10;99.90;;;;;;5004596;28;20049;-62
2022/01/06 03:30:10;;;;;;;36.72;4.95;;;5.20;99.90;;;;;;5023360;28;20073;-61
2022/01/06 03:32:36;;;;;;;17.58;2.85;;;5.20;99.90;;;;;;5017732;28;20681;-61
2022/01/06 03:35:02;;;;;;;20.88;3.10;;;5.20;99.90;;;;;;5009343;28;20038;-61
2022/01/06 03:37:27;;;;;;;24.73;4.25;;;5.10;99.90;;;;;;5014085;28;20034;-61
2022/01/06 03:39:53;;;;;;;19.02;3.20;;;5.10;99.90;;;;;;5012960;28;20124;-61
2022/01/06 03:42:19;;;;;;;11.50;2.17;;;5.10;99.90;;;;;;5017069;28;20041;-61
2022/01/06 03:44:44;;;;;;;19.70;3.95;;;5.10;99.90;;;;;;5019996;28;20153;-61
2022/01/06 03:47:11;;;;;;;18.85;3.30;;;5.10;99.90;;;;;;5018474;28;20084;-61
2022/01/06 03:49:37;;;;;;;16.67;6.00;;;5.10;99.90;;;;;;5016753;28;20488;-61
2022/01/06 03:52:03;;;;;;;26.48;5.38;;;5.10;99.90;;;;;;5017445;28;20081;-61
2022/01/06 03:54:29;;;;;;;15.13;3.10;;;5.10;99.90;;;;;;5021632;28;20111;-61
2022/01/06 03:56:54;;;;;;;23.73;4.60;;;5.10;99.90;;;;;;5028709;28;20038;-61
2022/01/06 03:59:20;;;;;;;15.15;3.75;;;5.10;99.90;;;;;;5027415;28;20057;-61
2022/01/06 04:01:46;;;;;;;17.00;3.65;;;5.00;99.90;;;;;;5016383;28;20112;-61
2022/01/06 04:04:13;;;;;;;19.10;3.80;;;5.00;99.90;;;;;;5020084;28;20109;-61
2022/01/06 04:06:39;;;;;;;23.88;5.32;;;5.00;99.90;;;;;;5021372;28;20050;-61
2022/01/06 04:09:05;;;;;;;14.38;3.38;;;5.10;99.90;;;;;;5030193;28;20049;-61
2022/01/06 04:11:31;;;;;;;19.08;3.75;;;5.00;99.90;;;;;;5017079;28;20070;-61
2022/01/06 04:13:57;;;;;;;17.85;3.55;;;4.90;99.90;;;;;;5017847;28;20137;-61
2022/01/06 04:16:25;;;;;;;15.45;2.95;;;4.90;99.90;;;;;;5027232;28;20053;-61
2022/01/06 04:18:51;;;;;;;23.20;2.97;;;4.80;99.90;;;;;;5021372;28;20121;-61
2022/01/06 04:21:16;;;;;;;13.80;3.22;;;4.80;99.90;;;;;;5028866;28;20136;-61
2022/01/06 04:23:42;;;;;;;18.38;3.63;;;4.70;99.90;;;;;;5020838;28;20061;-61
2022/01/06 04:26:07;;;;;;;21.08;3.70;;;4.70;99.90;;;;;;5019696;28;20038;-61
2022/01/06 04:28:33;;;;;;;18.98;2.95;;;4.60;99.90;;;;;;5019351;28;20501;-61
2022/01/06 04:30:59;;;;;;;26.27;4.45;;;4.50;99.90;;;;;;5022481;28;20185;-61
2022/01/06 04:33:24;;;;;;;26.83;3.55;;;4.50;99.90;;;;;;5009468;28;20077;-61
2022/01/06 04:35:50;;;;;;;17.17;5.32;;;4.50;99.90;;;;;;5002617;28;20168;-61
2022/01/06 04:38:15;;;;;;;15.98;3.58;;;4.40;99.90;;;;;;5029221;28;20084;-61
2022/01/06 04:40:41;;;;;;;21.25;4.28;;;4.40;99.90;;;;;;5023587;28;20049;-61
2022/01/06 04:43:07;;;;;;;18.92;3.85;;;4.30;99.90;;;;;;5024915;28;20499;-61
2022/01/06 04:45:34;;;;;;;18.55;3.33;;;4.30;99.90;;;;;;5015140;28;20050;-61
2022/01/06 04:47:59;;;;;;;18.23;4.40;;;4.20;99.90;;;;;;5014445;28;20041;-61
2022/01/06 04:50:25;;;;;;;19.95;4.60;;;4.20;99.90;;;;;;5019563;28;20445;-61
2022/01/06 04:52:51;;;;;;;21.63;4.65;;;4.10;99.90;;;;;;5015675;28;20477;-61
2022/01/06 04:55:16;;;;;;;20.45;5.25;;;4.00;99.90;;;;;;5015466;28;20046;-61
2022/01/06 04:57:43;;;;;;;13.25;3.00;;;4.00;99.90;;;;;;5027150;28;20045;-61
2022/01/06 05:00:09;;;;;;;18.27;3.50;;;3.90;99.90;;;;;;5014446;28;20045;-61
2022/01/06 05:02:35;;;;;;;15.02;3.83;;;3.90;99.90;;;;;;5011667;28;20034;-61
2022/01/06 05:05:00;;;;;;;21.98;5.50;;;3.90;99.90;;;;;;5018425;28;20038;-61
2022/01/06 05:07:26;;;;;;;26.52;4.85;;;3.80;99.90;;;;;;5021743;28;20045;-61
2022/01/06 05:09:51;;;;;;;21.70;3.83;;;3.70;99.90;;;;;;4994640;28;20133;-61
2022/01/06 05:12:17;;;;;;;21.67;5.25;;;3.70;99.90;;;;;;5012341;28;20045;-61
2022/01/06 05:14:42;;;;;;;12.95;2.88;;;3.60;99.90;;;;;;5020255;28;20642;-61
2022/01/06 05:17:08;;;;;;;19.48;3.53;;;3.60;99.90;;;;;;5012109;28;20042;-61
2022/01/06 05:19:34;;;;;;;16.42;3.58;;;3.60;99.90;;;;;;5012148;28;20045;-61
2022/01/06 05:22:02;;;;;;;14.85;3.67;;;3.50;99.90;;;;;;5023356;28;20045;-61
2022/01/06 05:24:27;;;;;;;15.98;2.85;;;3.40;99.90;;;;;;5028114;28;20041;-61
2022/01/06 05:26:57;;;;;;;22.13;3.63;;;3.40;99.90;;;;;;5027464;28;20068;-61
2022/01/06 05:29:23;;;;;;;19.60;5.82;;;3.40;99.90;;;;;;5023025;28;20553;-61
2022/01/06 05:31:49;;;;;;;24.42;3.97;;;3.50;99.90;;;;;;5018139;28;20050;-61
2022/01/06 05:34:15;;;;;;;24.23;4.93;;;3.40;99.90;;;;;;5017469;28;20053;-61
2022/01/06 05:36:40;;;;;;;21.58;3.72;;;3.40;99.90;;;;;;5014821;28;20045;-61
2022/01/06 05:39:07;;;;;;;12.43;3.72;;;3.50;99.90;;;;;;5022780;28;20045;-61
2022/01/06 05:41:33;;;;;;;19.95;4.03;;;3.40;99.90;;;;;;5028286;28;20051;-61
2022/01/06 05:43:59;;;;;;;19.58;2.90;;;3.30;99.90;;;;;;5023305;28;20161;-61
2022/01/06 05:46:25;;;;;;;14.15;3.13;;;3.30;99.90;;;;;;5020652;28;20029;-61
2022/01/06 05:48:50;;;;;;;17.83;3.95;;;3.20;99.90;;;;;;5021039;28;20119;-61
2022/01/06 05:51:16;;;;;;;22.25;4.80;;;3.10;99.90;;;;;;5017698;28;20046;-61
2022/01/06 05:53:42;;;;;;;19.63;3.95;;;3.10;99.90;;;;;;5018492;28;20042;-61
2022/01/06 05:56:07;;;;;;;15.63;3.97;;;3.20;99.90;;;;;;5022767;28;20053;-61
2022/01/06 05:58:33;;;;;;;15.02;4.07;;;3.30;99.90;;;;;;5024319;28;20045;-61
2022/01/06 06:00:58;;;;;;;23.60;4.22;;;3.20;99.90;;;;;;5015039;28;20045;-61
2022/01/06 06:03:27;;;;;;;13.18;3.05;;;3.10;99.90;;;;;;5012403;28;20042;-61
2022/01/06 06:05:55;;;;;;;15.93;2.95;;;3.00;99.90;;;;;;5018118;28;20041;-61
2022/01/06 06:08:21;;;;;;;13.77;3.63;;;3.00;99.90;;;;;;5004816;28;20665;-61
2022/01/06 06:10:47;;;;;;;24.50;3.55;;;3.00;99.90;;;;;;5016195;28;20045;-61
2022/01/06 06:13:13;;;;;;;12.40;3.03;;;2.90;99.90;;;;;;5016412;28;20444;-61
2022/01/06 06:15:38;;;;;;;23.40;3.88;;;2.90;99.90;;;;;;5023231;28;20045;-61
2022/01/06 06:18:05;;;;;;;14.23;3.65;;;2.90;99.90;;;;;;5017543;28;20492;-61
2022/01/06 06:20:31;;;;;;;16.80;2.80;;;2.90;99.90;;;;;;5013281;28;20091;-61
2022/01/06 06:22:57;;;;;;;17.90;2.83;;;2.90;99.90;;;;;;5015584;28;20096;-61
2022/01/06 06:25:23;;;;;;;25.95;3.42;;;2.90;99.90;;;;;;5018670;28;20045;-61
2022/01/06 06:27:49;;;;;;;33.03;5.78;;;2.80;99.90;;;;;;5024046;28;20053;-61
2022/01/06 06:30:15;;;;;;;17.65;3.42;;;2.80;99.90;;;;;;5020372;28;20115;-61
2022/01/06 06:32:40;;;;;;;16.15;3.63;;;2.80;99.90;;;;;;5012139;28;20042;-61
2022/01/06 06:35:07;;;;;;;15.65;3.10;;;2.80;99.90;;;;;;5015845;28;20103;-61
2022/01/06 06:37:32;;;;;;;18.48;3.17;;;2.80;99.90;;;;;;5014165;28;20034;-61
2022/01/06 06:39:59;;;;;;;14.30;3.15;;;2.80;99.90;;;;;;5012430;28;20037;-61
2022/01/06 06:42:25;;;;;;;20.92;4.70;;;2.70;99.90;;;;;;5025638;28;20580;-61
2022/01/06 06:44:51;;;;;;;14.77;3.28;;;2.70;99.90;;;;;;5015696;28;20053;-61
2022/01/06 06:47:17;;;;;;;9.65;3.30;;;2.50;99.90;;;;;;4997685;28;20057;-61
2022/01/06 06:49:42;;;;;;;11.40;3.53;;;2.50;99.90;;;;;;5004867;28;20057;-61
2022/01/06 06:52:08;;;;;;;24.25;4.75;;;2.40;99.90;;;;;;5018215;28;20050;-61
2022/01/06 06:54:33;;;;;;;21.27;4.63;;;2.50;99.90;;;;;;5019780;28;20366;-61
2022/01/06 06:56:59;;;;;;;19.08;3.60;;;2.50;99.90;;;;;;5017547;28;20107;-61
2022/01/06 06:59:25;;;;;;;14.63;3.85;;;2.50;99.90;;;;;;5010553;28;20405;-61
2022/01/06 07:01:50;;;;;;;21.63;4.13;;;2.60;99.90;;;;;;5012797;28;20045;-61
2022/01/06 07:04:16;;;;;;;17.83;3.50;;;2.50;99.90;;;;;;5021671;28;20045;-61
2022/01/06 07:06:41;;;;;;;19.58;4.45;;;2.50;99.90;;;;;;5025721;28;20060;-61
2022/01/06 07:09:07;;;;;;;15.32;3.72;;;2.60;99.90;;;;;;5016299;28;20528;-61
2022/01/06 07:11:33;;;;;;;30.00;4.75;;;2.60;99.90;;;;;;5016517;28;20037;-61
2022/01/06 07:13:58;;;;;;;23.30;3.65;;;2.60;99.90;;;;;;5017162;28;20103;-61
2022/01/06 07:16:24;;;;;;;26.67;4.07;;;2.60;99.90;;;;;;5016693;28;20161;-61
2022/01/06 07:18:49;;;;;;;19.77;4.30;;;2.70;99.90;;;;;;5013186;28;20042;-61
2022/01/06 07:21:15;;;;;;;15.73;3.72;;;2.70;99.90;;;;;;5015474;28;20076;-61
2022/01/06 07:23:42;;;;;;;15.77;3.13;;;2.70;99.90;;;;;;5022891;28;20484;-61
2022/01/06 07:26:07;;;;;;;24.63;3.97;;;2.70;99.90;;;;;;5012636;28;20508;-61
2022/01/06 07:28:33;;;;;;;22.55;4.85;;;2.80;99.90;;;;;;5019251;28;20045;-61
2022/01/06 07:30:59;;;;;;;25.30;3.92;;;2.80;99.90;;;;;;5025661;28;20056;-61
2022/01/06 07:33:25;;;;;;;19.92;4.63;;;2.90;99.90;;;;;;5016389;28;20555;-61
2022/01/06 07:35:50;;;;;;;23.80;4.50;;;2.90;99.90;;;;;;5014433;28;20136;-61
2022/01/06 07:38:17;;;;;;;19.73;4.22;;;2.80;99.90;;;;;;5015563;28;20085;-61
2022/01/06 07:40:43;;;;;;;18.00;4.22;;;2.90;99.90;;;;;;5018237;28;20049;-61
2022/01/06 07:43:09;;;;;;;19.13;3.95;;;2.90;99.90;;;;;;5015984;28;20038;-61
2022/01/06 07:45:34;;;;;;;19.60;3.85;;;2.80;99.90;;;;;;5014892;28;20050;-61
2022/01/06 07:48:03;;;;;;;21.73;4.85;;;2.80;99.90;;;;;;5025807;28;20132;-61
2022/01/06 07:50:31;;;;;;;18.55;4.28;;;2.80;99.90;;;;;;5015811;28;20526;-61
2022/01/06 07:52:57;;;;;;;17.08;3.97;;;2.80;99.90;;;;;;5020805;28;20026;-61
2022/01/06 07:55:23;;;;;;;15.43;3.58;;;2.80;99.90;;;;;;5017736;28;20042;-61
2022/01/06 07:57:50;;;;;;;11.82;3.40;;;2.80;99.90;;;;;;5016094;28;20048;-61
2022/01/06 08:00:17;;;;;;;14.88;4.00;;;2.80;99.90;;;;;;5011438;28;20497;-61
2022/01/06 08:02:44;;;;;;;22.35;5.32;;;2.80;99.90;;;;;;5018588;28;20038;-61
2022/01/06 08:05:12;;;;;;;14.43;3.88;;;2.80;99.90;;;;;;5013296;28;20129;-61
2022/01/06 08:07:38;;;;;;;18.63;3.97;;;2.70;99.90;;;;;;5021510;28;20413;-61
2022/01/06 08:10:05;;;;;;;21.13;4.90;;;2.80;99.90;;;;;;5021099;28;20041;-62
2022/01/06 08:12:30;;;;;;;12.60;3.03;;;2.80;99.90;;;;;;5016213;28;20057;-61
2022/01/06 08:14:56;;;;;;;23.63;6.68;;;2.70;99.90;;;;;;5019741;28;20980;-62
2022/01/06 08:17:21;;;;;;;15.82;3.65;;;2.70;99.90;;;;;;5015487;28;20054;-62
2022/01/06 08:19:47;;;;;;;21.95;4.72;;;2.70;99.90;;;;;;5012089;28;20084;-61
2022/01/06 08:22:13;;;;;;;25.05;5.10;;;2.80;99.90;;;;;;5012585;28;20065;-62
2022/01/06 08:24:40;;;;;;;18.58;3.20;;;2.70;99.90;;;;;;5011912;28;20620;-61
2022/01/06 08:27:08;;;;;;;21.95;3.95;;;2.70;99.90;;;;;;5018265;28;20045;-62
2022/01/06 08:29:37;;;;;;;20.13;6.35;;;2.80;99.90;;;;;;5023152;28;20046;-61
2022/01/06 08:32:04;;;;;;;29.70;7.75;;;2.70;99.90;;;;;;5029107;28;20408;-63
2022/01/06 08:34:29;;;;;;;26.55;6.13;;;2.80;99.90;;;;;;5023611;28;20084;-62
2022/01/06 08:36:55;;;;;;;22.45;6.85;;;2.80;99.90;;;;;;5012689;28;20069;-62
2022/01/06 08:39:21;;;;;;;22.27;7.00;;;2.80;99.90;;;;;;5018855;28;20058;-62
2022/01/06 08:41:48;;;;;;;14.10;4.80;;;2.90;99.90;;;;;;5014086;28;20034;-62
2022/01/06 08:44:14;;;;;;;12.35;3.72;;;2.80;99.90;;;;;;5021280;28;20064;-62
2022/01/06 08:46:40;;;;;;;19.20;5.28;;;2.90;99.90;;;;;;5016382;28;20498;-62
2022/01/06 08:49:06;;;;;;;18.58;3.65;;;2.90;99.90;;;;;;5015182;28;20175;-62
2022/01/06 08:51:32;;;;;;;18.05;3.45;;;3.00;99.90;;;;;;5024784;28;20049;-62
2022/01/06 08:53:58;;;;;;;22.27;3.75;;;3.00;99.90;;;;;;5022733;28;20041;-62
2022/01/06 08:56:24;;;;;;;13.20;3.53;;;3.00;99.90;;;;;;5018794;28;20219;-62
2022/01/06 08:58:50;;;;;;;14.05;3.58;;;3.00;99.90;;;;;;5025794;28;20720;-62
2022/01/06 09:01:16;;;;;;;17.35;3.38;;;3.00;99.90;;;;;;5024594;28;20037;-61
2022/01/06 09:03:41;;;;;;;11.32;3.15;;;3.00;99.90;;;;;;5016012;28;20054;-61
2022/01/06 09:06:07;;;;;;;12.82;3.28;;;3.00;99.90;;;;;;5024755;28;20053;-61
2022/01/06 09:08:32;;;;;;;18.63;3.45;;;3.00;99.90;;;;;;5013357;28;20068;-63
2022/01/06 09:10:58;;;;;;;22.55;3.97;;;3.10;99.90;;;;;;5018120;28;20038;-63
2022/01/06 09:13:23;;;;;;;21.25;3.67;;;3.10;99.90;;;;;;5026489;28;20132;-62
2022/01/06 09:15:49;;;;;;;16.25;4.70;;;3.20;99.90;;;;;;5012996;28;20037;-61
2022/01/06 09:18:14;;;;;;;16.13;4.63;;;3.20;99.90;;;;;;5019228;28;20096;-61
2022/01/06 09:20:40;;;;;;;16.27;4.53;;;3.40;99.90;;;;;;5023032;28;20693;-61
2022/01/06 09:23:06;;;;;;;17.45;3.60;;;3.30;99.90;;;;;;5022120;28;20406;-61
2022/01/06 09:25:32;;;;;;;12.82;3.33;;;3.40;99.90;;;;;;5021452;28;20049;-62
2022/01/06 09:27:58;;;;;;;19.23;3.60;;;3.50;99.90;;;;;;5010861;28;20762;-62
2022/01/06 09:30:25;;;;;;;26.90;6.18;;;3.40;99.90;;;;;;5002454;28;20053;-63
2022/01/06 09:32:53;;;;;;;16.50;4.03;;;3.50;99.90;;;;;;5015350;28;20050;-62
2022/01/06 09:35:19;;;;;;;17.88;4.38;;;3.60;99.90;;;;;;5018963;28;20045;-63
2022/01/06 09:37:45;;;;;;;37.78;5.40;;;3.60;99.90;;;;;;5019954;28;20056;-62
2022/01/06 09:40:11;;;;;;;28.08;5.50;;;3.60;99.90;;;;;;5022031;28;20508;-62
2022/01/06 09:42:40;;;;;;;23.42;4.30;;;3.70;99.90;;;;;;5011583;28;20386;-61
2022/01/06 09:45:05;;;;;;;19.35;4.22;;;3.60;99.90;;;;;;5017079;28;20045;-62
2022/01/06 09:47:31;;;;;;;19.67;4.00;;;3.60;99.90;;;;;;5023102;28;20053;-62
2022/01/06 09:49:57;;;;;;;14.02;3.47;;;3.70;99.90;;;;;;5024253;28;20068;-62
2022/01/06 09:52:23;;;;;;;24.25;3.53;;;3.70;99.90;;;;;;5015719;28;20378;-62
2022/01/06 09:54:49;;;;;;;32.40;4.25;;;3.70;99.90;;;;;;5027108;28;20123;-62
2022/01/06 09:57:14;;;;;;;20.05;4.38;;;3.70;99.90;;;;;;5012602;28;20049;-61
2022/01/06 09:59:43;;;;;;;19.42;4.53;;;3.70;99.90;;;;;;5016140;28;20110;-62
2022/01/06 10:02:16;;;;;;;19.77;3.97;;;3.70;99.90;;;;;;5013529;28;20053;-62
2022/01/06 10:04:48;;;;;;;24.37;4.27;;;3.80;99.90;;;;;;5017465;28;20042;-61
2022/01/06 10:07:15;;;;;;;17.60;3.20;;;3.80;99.90;;;;;;5022559;28;20392;-61
2022/01/06 10:09:41;;;;;;;20.02;3.33;;;3.90;99.90;;;;;;5023117;28;20094;-61
2022/01/06 10:12:13;;;;;;;19.58;3.83;;;4.00;99.90;;;;;;5001402;28;20128;-60
2022/01/06 10:14:45;;;;;;;15.43;4.55;;;4.10;99.90;;;;;;5026047;28;20053;-61
2022/01/06 10:17:17;;;;;;;20.13;3.72;;;4.10;99.90;;;;;;5020892;28;20037;-61
2022/01/06 10:19:44;;;;;;;18.58;3.60;;;4.20;99.90;;;;;;5006016;28;20414;-61
2022/01/06 10:22:20;;;;;;;34.50;4.85;;;4.30;99.90;;;;;;5022240;28;20303;-60
2022/01/06 10:24:48;;;;;;;18.60;3.65;;;4.40;99.90;;;;;;5028037;28;20042;-61
2022/01/06 10:27:17;;;;;;;19.67;4.10;;;4.50;99.90;;;;;;5025221;28;20045;-61
2022/01/06 10:29:50;;;;;;;20.25;4.40;;;4.60;99.90;;;;;;5024645;28;20056;-62
2022/01/06 10:32:19;;;;;;;23.33;4.18;;;4.70;99.90;;;;;;5016825;28;20387;-62
2022/01/06 10:34:50;;;;;;;18.67;4.30;;;4.70;99.90;;;;;;5019726;28;20094;-61
2022/01/06 10:37:25;;;;;;;19.98;4.93;;;4.80;99.90;;;;;;5018658;28;20345;-62
2022/01/06 10:39:52;;;;;;;20.23;3.92;;;4.80;99.90;;;;;;5000101;28;20053;-61
2022/01/06 10:42:30;;;;;;;20.08;4.53;;;4.80;99.90;;;;;;5013208;28;20503;-61
2022/01/06 10:45:00;;;;;;;20.55;3.60;;;4.80;99.90;;;;;;5012821;28;20049;-61
2022/01/06 10:47:39;;;;;;;21.08;4.75;;;4.90;99.90;;;;;;4996404;28;20075;-60
2022/01/06 10:50:13;;;;;;;17.88;3.42;;;4.90;99.90;;;;;;5006068;28;20045;-61
2022/01/06 10:52:42;;;;;;;18.05;4.07;;;4.90;99.90;;;;;;5025123;28;20041;-60
2022/01/06 10:55:18;;;;;;;21.38;4.40;;;5.00;99.90;;;;;;5023249;28;20045;-61
2022/01/06 10:57:50;;;;;;;31.90;3.85;;;5.00;99.90;;;;;;5020813;28;20041;-60
2022/01/06 11:00:17;;;;;;;18.95;4.28;;;5.00;99.90;;;;;;5021970;28;20175;-60
2022/01/06 11:02:42;;;;;;;28.20;7.03;;;5.10;99.90;;;;;;5019541;28;20117;-60
2022/01/06 11:05:08;;;;;;;15.45;4.72;;;5.10;99.90;;;;;;5005147;28;20129;-61
2022/01/06 11:07:34;;;;;;;22.63;3.88;;;5.10;99.90;;;;;;5018681;28;20050;-61
2022/01/06 11:09:59;;;;;;;16.67;2.80;;;5.30;99.90;;;;;;5026025;28;20052;-60
2022/01/06 11:12:30;;;;;;;24.55;3.97;;;5.40;99.90;;;;;;5022808;28;20080;-61
2022/01/06 11:14:56;;;;;;;21.15;3.25;;;5.60;99.90;;;;;;5025588;28;20041;-60
2022/01/06 11:17:24;;;;;;;19.13;2.60;;;5.70;99.90;;;;;;5027940;28;20045;-61
2022/01/06 11:19:50;;;;;;;19.10;4.22;;;5.80;99.90;;;;;;5022147;28;20046;-61
2022/01/06 11:22:22;;;;;;;16.98;4.22;;;5.90;99.90;;;;;;5014988;28;20045;-61
2022/01/06 11:24:52;;;;;;;23.10;3.33;;;6.00;99.90;;;;;;5007386;28;20063;-61
2022/01/06 11:27:30;;;;;;;18.92;3.72;;;6.00;99.90;;;;;;5025254;28;20045;-62
2022/01/06 11:30:07;;;;;;;14.35;3.10;;;6.00;99.90;;;;;;5025747;28;20147;-61
2022/01/06 11:32:33;;;;;;;13.48;3.58;;;6.00;99.90;;;;;;5021506;28;20120;-60
2022/01/06 11:35:11;;;;;;;19.08;5.85;;;6.10;99.90;;;;;;5024618;28;20127;-61
2022/01/06 11:37:44;;;;;;;15.43;2.88;;;6.00;99.90;;;;;;5021527;28;20042;-61
2022/01/06 11:40:12;;;;;;;21.25;4.53;;;6.00;99.90;;;;;;5017077;28;20046;-62
2022/01/06 11:42:38;;;;;;;19.35;4.18;;;6.10;99.90;;;;;;5026095;28;20046;-61
2022/01/06 11:45:06;;;;;;;20.27;3.40;;;6.10;99.90;;;;;;5021870;28;20076;-61
2022/01/06 11:47:39;;;;;;;13.45;2.75;;;6.20;99.90;;;;;;5026867;28;20654;-61
2022/01/06 11:50:09;;;;;;;10.32;2.20;;;6.40;99.90;;;;;;5019207;28;20405;-61
2022/01/06 11:52:36;;;;;;;11.70;2.92;;;6.60;99.90;;;;;;5023852;28;20088;-61
2022/01/06 11:55:12;;;;;;;18.00;3.42;;;6.80;99.90;;;;;;5024894;28;20037;-61
2022/01/06 11:57:38;;;;;;;14.85;4.82;;;7.00;99.90;;;;;;5022780;28;20076;-61
2022/01/06 12:00:22;;;;;;;14.43;2.50;;;7.10;99.90;;;;;;5019385;28;20050;-61
2022/01/06 12:03:01;;;;;;;;;;;7.20;99.90;;;;;;5023742;28;20033;-61
2022/01/06 12:05:28;;;;;;;8.90;2.72;;;7.30;99.90;;;;;;5019705;28;19921;-61
2022/01/06 12:07:55;;;;;;;8.13;2.65;;;7.50;99.90;;;;;;5025083;28;20069;-61
2022/01/06 12:10:21;;;;;;;9.65;2.25;;;7.50;99.90;;;;;;5021189;28;20061;-61
2022/01/06 12:12:50;;;;;;;12.80;2.60;;;7.50;99.90;;;;;;5026172;28;20049;-61
2022/01/06 12:15:19;;;;;;;9.73;1.42;;;7.60;99.90;;;;;;5026051;28;20057;-61
2022/01/06 12:17:52;;;;;;;9.23;2.53;;;7.80;99.90;;;;;;5028174;28;20041;-61
2022/01/06 12:20:26;;;;;;;14.35;2.15;;;7.80;99.90;;;;;;5023600;28;20642;-61
2022/01/06 12:22:52;;;;;;;9.48;2.00;;;8.00;99.90;;;;;;5030847;28;20069;-61
2022/01/06 12:25:23;;;;;;;10.20;2.90;;;8.10;99.90;;;;;;5029103;28;20077;-61
2022/01/06 12:27:54;;;;;;;12.70;1.90;;;8.20;99.90;;;;;;5013966;28;20054;-61
2022/01/06 12:30:22;;;;;;;15.98;2.28;;;8.30;99.90;;;;;;5029587;28;20142;-61
2022/01/06 12:33:01;;;;;;;9.20;2.13;;;8.30;99.90;;;;;;5014231;28;20054;-61
2022/01/06 12:35:40;;;;;;;4.60;1.20;;;8.40;99.90;;;;;;5030450;28;20518;-61
2022/01/06 12:38:05;;;;;;;9.88;2.75;;;8.30;99.90;;;;;;5006209;28;20041;-62
2022/01/06 12:40:36;;;;;;;11.43;1.92;;;8.30;99.90;;;;;;5028009;28;20044;-61
2022/01/06 12:43:20;;;;;;;11.55;2.75;;;8.30;99.90;;;;;;5024421;28;20404;-61
2022/01/06 12:45:46;;;;;;;;;;;8.30;99.90;;;;;;5027809;28;20094;-61
2022/01/06 12:48:13;;;;;;;7.90;1.52;;;8.40;99.90;;;;;;5004152;28;19960;-61
2022/01/06 12:50:48;;;;;;;9.85;1.90;;;8.30;99.90;;;;;;5028412;28;20045;-61